Kezdőlap
METAR-TAF:

METAR-TAF

Repülőterek :

Craiova, Románia

földrajzi szélesség: 44-14N, földrajzi hosszúság: 023-52E, magasság: 192 m

Jelenlegi meteorológiai megfigyelések

A jelentés 22 perccel ezelõtt készült, 13:30 UTC
Keleti szél 7 kt, északkeleti és délkeleti között változik
Hőmérséklet 30°C
Páratartalom 29%
Légköri nyomás 1013 hPa
Látótávolság 10 km, vagy több
felhőtlen 1500 m magasságban, és nincs gomolyfelhõ

METAR: LRCV 141330Z 10007KT 050V140 CAVOK 30/10 Q1013

Idő: 16:52 (13:52 UTC)

Előrejelzés

A jelentés 2 órával és 52 perccel ezelõtt készült, 11:00 UTC
Az előrejelzés 14-én 12 óra UTC és 14-én 21 óra UTC között érvényes
Keleti szél 10 kt
Látótávolság 10 km, vagy több
felhőtlen 1500 m magasságban, és nincs gomolyfelhõ

TAF: LRCV 141100Z 1412/1421 09010KT CAVOK

Meteorológiai megfigyelések és előrejelzések több, mint 4000 repülőtéren (METAR és TAF jelentéseket).

A térképen piros és sárga pontok jelzik az elérhető meteorológiai állomásokat.

Mozgassa az egeret a pont fölött, hogy megjelenjen az állomás neve.

Azután kattintson az időjárási megfigyelések és előrejelzések megtekintéséhez.

A térkép megváltoztatása: kattintson a fekete keresztel jelölt zöld gombra ráközelítéshez, a vonallal jelölt zöld gombra távolításhoz, vagy a zöld nyilakra a szomszédos térképek eléréséhez.


METAR-TAF: